sensor_id;sensor_type;location;lat;lon;timestamp;P1;durP1;ratioP1;P2;durP2;ratioP2
13720;SDS011;6932;51.438;5.470;2024-03-02T00:05:09;2.07;;;1.10;;
13720;SDS011;6932;51.438;5.470;2024-03-02T00:07:39;2.53;;;1.10;;
13720;SDS011;6932;51.438;5.470;2024-03-02T00:10:08;2.00;;;1.00;;
13720;SDS011;6932;51.438;5.470;2024-03-02T00:12:36;1.13;;;0.90;;
13720;SDS011;6932;51.438;5.470;2024-03-02T00:15:47;0.60;;;0.60;;
13720;SDS011;6932;51.438;5.470;2024-03-02T00:18:16;0.30;;;0.30;;
13720;SDS011;6932;51.438;5.470;2024-03-02T00:20:55;0.77;;;0.40;;
13720;SDS011;6932;51.438;5.470;2024-03-02T00:23:22;0.70;;;0.40;;
13720;SDS011;6932;51.438;5.470;2024-03-02T00:25:52;0.30;;;0.30;;
13720;SDS011;6932;51.438;5.470;2024-03-02T00:31:10;0.53;;;0.30;;
13720;SDS011;6932;51.438;5.470;2024-03-02T00:33:44;1.40;;;0.30;;
13720;SDS011;6932;51.438;5.470;2024-03-02T00:36:13;0.20;;;0.20;;
13720;SDS011;6932;51.438;5.470;2024-03-02T00:38:47;0.60;;;0.30;;
13720;SDS011;6932;51.438;5.470;2024-03-02T00:41:19;0.30;;;0.30;;
13720;SDS011;6932;51.438;5.470;2024-03-02T00:46:29;0.60;;;0.60;;
13720;SDS011;6932;51.438;5.470;2024-03-02T00:49:03;0.90;;;0.37;;
13720;SDS011;6932;51.438;5.470;2024-03-02T00:51:31;0.43;;;0.37;;
13720;SDS011;6932;51.438;5.470;2024-03-02T00:54:00;0.40;;;0.40;;
13720;SDS011;6932;51.438;5.470;2024-03-02T00:56:30;0.33;;;0.33;;
13720;SDS011;6932;51.438;5.470;2024-03-02T00:58:57;0.40;;;0.40;;
13720;SDS011;6932;51.438;5.470;2024-03-02T01:01:23;0.40;;;0.40;;
13720;SDS011;6932;51.438;5.470;2024-03-02T01:03:49;0.37;;;0.30;;
13720;SDS011;6932;51.438;5.470;2024-03-02T01:06:15;0.50;;;0.40;;
13720;SDS011;6932;51.438;5.470;2024-03-02T01:08:42;0.50;;;0.40;;
13720;SDS011;6932;51.438;5.470;2024-03-02T01:11:08;0.30;;;0.30;;
13720;SDS011;6932;51.438;5.470;2024-03-02T01:13:34;0.40;;;0.40;;
13720;SDS011;6932;51.438;5.470;2024-03-02T01:16:00;0.33;;;0.30;;
13720;SDS011;6932;51.438;5.470;2024-03-02T01:18:27;0.30;;;0.20;;
13720;SDS011;6932;51.438;5.470;2024-03-02T01:20:53;0.37;;;0.30;;
13720;SDS011;6932;51.438;5.470;2024-03-02T01:23:21;0.60;;;0.60;;
13720;SDS011;6932;51.438;5.470;2024-03-02T01:25:49;0.50;;;0.50;;
13720;SDS011;6932;51.438;5.470;2024-03-02T01:28:15;0.30;;;0.30;;
13720;SDS011;6932;51.438;5.470;2024-03-02T01:30:42;0.40;;;0.40;;
13720;SDS011;6932;51.438;5.470;2024-03-02T01:33:08;0.53;;;0.50;;
13720;SDS011;6932;51.438;5.470;2024-03-02T01:35:34;0.80;;;0.60;;
13720;SDS011;6932;51.438;5.470;2024-03-02T01:38:00;0.67;;;0.40;;
13720;SDS011;6932;51.438;5.470;2024-03-02T01:40:27;0.50;;;0.50;;
13720;SDS011;6932;51.438;5.470;2024-03-02T01:42:53;0.33;;;0.30;;
13720;SDS011;6932;51.438;5.470;2024-03-02T01:45:19;1.20;;;0.20;;
13720;SDS011;6932;51.438;5.470;2024-03-02T01:47:45;0.53;;;0.50;;
13720;SDS011;6932;51.438;5.470;2024-03-02T01:50:11;1.10;;;0.67;;
13720;SDS011;6932;51.438;5.470;2024-03-02T01:52:38;0.30;;;0.30;;
13720;SDS011;6932;51.438;5.470;2024-03-02T01:55:04;1.03;;;0.40;;
13720;SDS011;6932;51.438;5.470;2024-03-02T01:57:31;0.30;;;0.30;;
13720;SDS011;6932;51.438;5.470;2024-03-02T01:59:58;1.00;;;0.33;;
13720;SDS011;6932;51.438;5.470;2024-03-02T02:02:24;0.30;;;0.30;;
13720;SDS011;6932;51.438;5.470;2024-03-02T02:04:50;0.20;;;0.20;;
13720;SDS011;6932;51.438;5.470;2024-03-02T02:07:15;0.50;;;0.40;;
13720;SDS011;6932;51.438;5.470;2024-03-02T02:09:41;1.70;;;0.40;;
13720;SDS011;6932;51.438;5.470;2024-03-02T02:12:07;0.70;;;0.50;;
13720;SDS011;6932;51.438;5.470;2024-03-02T02:14:35;1.20;;;0.40;;
13720;SDS011;6932;51.438;5.470;2024-03-02T02:17:02;1.20;;;0.47;;
13720;SDS011;6932;51.438;5.470;2024-03-02T02:19:28;1.60;;;0.37;;
13720;SDS011;6932;51.438;5.470;2024-03-02T02:21:54;0.40;;;0.40;;
13720;SDS011;6932;51.438;5.470;2024-03-02T02:24:20;0.47;;;0.47;;
13720;SDS011;6932;51.438;5.470;2024-03-02T02:26:46;0.40;;;0.30;;
13720;SDS011;6932;51.438;5.470;2024-03-02T02:29:12;0.40;;;0.40;;
13720;SDS011;6932;51.438;5.470;2024-03-02T02:31:40;0.30;;;0.30;;
13720;SDS011;6932;51.438;5.470;2024-03-02T02:34:07;0.40;;;0.30;;
13720;SDS011;6932;51.438;5.470;2024-03-02T02:36:34;0.40;;;0.40;;
13720;SDS011;6932;51.438;5.470;2024-03-02T02:39:03;0.40;;;0.30;;
13720;SDS011;6932;51.438;5.470;2024-03-02T02:41:32;0.30;;;0.30;;
13720;SDS011;6932;51.438;5.470;2024-03-02T02:43:57;0.90;;;0.30;;
13720;SDS011;6932;51.438;5.470;2024-03-02T02:46:23;0.43;;;0.30;;
13720;SDS011;6932;51.438;5.470;2024-03-02T02:48:49;0.93;;;0.50;;
13720;SDS011;6932;51.438;5.470;2024-03-02T02:51:16;0.53;;;0.40;;
13720;SDS011;6932;51.438;5.470;2024-03-02T02:53:42;1.20;;;0.40;;
13720;SDS011;6932;51.438;5.470;2024-03-02T02:56:08;0.97;;;0.50;;
13720;SDS011;6932;51.438;5.470;2024-03-02T02:58:34;0.37;;;0.37;;
13720;SDS011;6932;51.438;5.470;2024-03-02T03:01:00;0.50;;;0.50;;
13720;SDS011;6932;51.438;5.470;2024-03-02T03:03:26;0.40;;;0.40;;
13720;SDS011;6932;51.438;5.470;2024-03-02T03:05:52;0.30;;;0.30;;
13720;SDS011;6932;51.438;5.470;2024-03-02T03:08:17;1.13;;;0.40;;
13720;SDS011;6932;51.438;5.470;2024-03-02T03:10:43;0.40;;;0.40;;
13720;SDS011;6932;51.438;5.470;2024-03-02T03:13:09;0.47;;;0.30;;
13720;SDS011;6932;51.438;5.470;2024-03-02T03:15:35;0.30;;;0.30;;
13720;SDS011;6932;51.438;5.470;2024-03-02T03:18:02;0.40;;;0.40;;
13720;SDS011;6932;51.438;5.470;2024-03-02T03:20:29;0.63;;;0.53;;
13720;SDS011;6932;51.438;5.470;2024-03-02T03:22:56;0.30;;;0.30;;
13720;SDS011;6932;51.438;5.470;2024-03-02T03:25:22;0.47;;;0.43;;
13720;SDS011;6932;51.438;5.470;2024-03-02T03:27:48;0.40;;;0.40;;
13720;SDS011;6932;51.438;5.470;2024-03-02T03:30:14;2.03;;;0.50;;
13720;SDS011;6932;51.438;5.470;2024-03-02T03:32:40;1.70;;;0.50;;
13720;SDS011;6932;51.438;5.470;2024-03-02T03:35:06;0.40;;;0.40;;
13720;SDS011;6932;51.438;5.470;2024-03-02T03:37:32;0.83;;;0.50;;
13720;SDS011;6932;51.438;5.470;2024-03-02T03:40:01;0.57;;;0.37;;
13720;SDS011;6932;51.438;5.470;2024-03-02T03:42:32;0.73;;;0.50;;
13720;SDS011;6932;51.438;5.470;2024-03-02T03:44:57;0.30;;;0.23;;
13720;SDS011;6932;51.438;5.470;2024-03-02T03:47:23;0.73;;;0.50;;
13720;SDS011;6932;51.438;5.470;2024-03-02T03:49:49;0.30;;;0.30;;
13720;SDS011;6932;51.438;5.470;2024-03-02T03:52:14;0.80;;;0.30;;
13720;SDS011;6932;51.438;5.470;2024-03-02T03:54:40;0.60;;;0.50;;
13720;SDS011;6932;51.438;5.470;2024-03-02T03:57:07;0.40;;;0.40;;
13720;SDS011;6932;51.438;5.470;2024-03-02T03:59:33;0.63;;;0.40;;
13720;SDS011;6932;51.438;5.470;2024-03-02T04:01:59;0.40;;;0.40;;
13720;SDS011;6932;51.438;5.470;2024-03-02T04:04:25;0.53;;;0.40;;
13720;SDS011;6932;51.438;5.470;2024-03-02T04:06:50;0.30;;;0.30;;
13720;SDS011;6932;51.438;5.470;2024-03-02T04:09:16;0.47;;;0.30;;
13720;SDS011;6932;51.438;5.470;2024-03-02T04:11:42;1.87;;;0.50;;
13720;SDS011;6932;51.438;5.470;2024-03-02T04:14:08;0.37;;;0.37;;
13720;SDS011;6932;51.438;5.470;2024-03-02T04:16:34;0.60;;;0.30;;
13720;SDS011;6932;51.438;5.470;2024-03-02T04:18:59;0.40;;;0.33;;
13720;SDS011;6932;51.438;5.470;2024-03-02T04:21:25;0.70;;;0.40;;
13720;SDS011;6932;51.438;5.470;2024-03-02T04:23:51;1.10;;;0.47;;
13720;SDS011;6932;51.438;5.470;2024-03-02T04:26:16;0.30;;;0.30;;
13720;SDS011;6932;51.438;5.470;2024-03-02T04:28:47;1.33;;;0.60;;
13720;SDS011;6932;51.438;5.470;2024-03-02T04:31:12;0.63;;;0.57;;
13720;SDS011;6932;51.438;5.470;2024-03-02T04:33:40;0.50;;;0.40;;
13720;SDS011;6932;51.438;5.470;2024-03-02T04:36:06;0.90;;;0.80;;
13720;SDS011;6932;51.438;5.470;2024-03-02T04:38:34;2.10;;;0.53;;
13720;SDS011;6932;51.438;5.470;2024-03-02T04:41:00;0.50;;;0.40;;
13720;SDS011;6932;51.438;5.470;2024-03-02T04:43:26;2.07;;;0.50;;
13720;SDS011;6932;51.438;5.470;2024-03-02T04:45:52;0.77;;;0.43;;
13720;SDS011;6932;51.438;5.470;2024-03-02T04:48:17;0.63;;;0.47;;
13720;SDS011;6932;51.438;5.470;2024-03-02T04:50:44;1.90;;;0.60;;
13720;SDS011;6932;51.438;5.470;2024-03-02T04:53:10;0.67;;;0.40;;
13720;SDS011;6932;51.438;5.470;2024-03-02T04:55:36;0.20;;;0.20;;
13720;SDS011;6932;51.438;5.470;2024-03-02T04:58:04;0.97;;;0.50;;
13720;SDS011;6932;51.438;5.470;2024-03-02T05:00:30;2.73;;;0.30;;
13720;SDS011;6932;51.438;5.470;2024-03-02T05:02:56;1.03;;;0.40;;
13720;SDS011;6932;51.438;5.470;2024-03-02T05:05:21;2.37;;;0.40;;
13720;SDS011;6932;51.438;5.470;2024-03-02T05:07:47;0.83;;;0.30;;
13720;SDS011;6932;51.438;5.470;2024-03-02T05:10:13;1.73;;;0.60;;
13720;SDS011;6932;51.438;5.470;2024-03-02T05:12:39;0.60;;;0.40;;
13720;SDS011;6932;51.438;5.470;2024-03-02T05:15:08;0.67;;;0.43;;
13720;SDS011;6932;51.438;5.470;2024-03-02T05:17:39;0.40;;;0.40;;
13720;SDS011;6932;51.438;5.470;2024-03-02T05:20:08;0.70;;;0.50;;
13720;SDS011;6932;51.438;5.470;2024-03-02T05:22:34;0.43;;;0.40;;
13720;SDS011;6932;51.438;5.470;2024-03-02T05:25:01;0.93;;;0.60;;
13720;SDS011;6932;51.438;5.470;2024-03-02T05:27:28;0.30;;;0.30;;
13720;SDS011;6932;51.438;5.470;2024-03-02T05:29:54;0.60;;;0.50;;
13720;SDS011;6932;51.438;5.470;2024-03-02T05:32:20;1.63;;;0.40;;
13720;SDS011;6932;51.438;5.470;2024-03-02T05:34:45;0.50;;;0.50;;
13720;SDS011;6932;51.438;5.470;2024-03-02T05:37:11;0.77;;;0.50;;
13720;SDS011;6932;51.438;5.470;2024-03-02T05:39:37;0.97;;;0.40;;
13720;SDS011;6932;51.438;5.470;2024-03-02T05:42:03;1.37;;;0.40;;
13720;SDS011;6932;51.438;5.470;2024-03-02T05:44:29;0.50;;;0.50;;
13720;SDS011;6932;51.438;5.470;2024-03-02T05:46:55;1.00;;;0.90;;
13720;SDS011;6932;51.438;5.470;2024-03-02T05:49:21;0.73;;;0.63;;
13720;SDS011;6932;51.438;5.470;2024-03-02T05:51:47;0.93;;;0.67;;
13720;SDS011;6932;51.438;5.470;2024-03-02T05:54:13;1.70;;;0.40;;
13720;SDS011;6932;51.438;5.470;2024-03-02T05:56:38;0.87;;;0.43;;
13720;SDS011;6932;51.438;5.470;2024-03-02T05:59:04;0.70;;;0.60;;
13720;SDS011;6932;51.438;5.470;2024-03-02T06:01:39;1.47;;;0.50;;
13720;SDS011;6932;51.438;5.470;2024-03-02T06:04:06;1.10;;;0.60;;
13720;SDS011;6932;51.438;5.470;2024-03-02T06:06:32;0.40;;;0.40;;
13720;SDS011;6932;51.438;5.470;2024-03-02T06:08:59;0.70;;;0.57;;
13720;SDS011;6932;51.438;5.470;2024-03-02T06:11:39;0.87;;;0.40;;
13720;SDS011;6932;51.438;5.470;2024-03-02T06:14:06;0.50;;;0.50;;
13720;SDS011;6932;51.438;5.470;2024-03-02T06:16:33;1.33;;;0.50;;
13720;SDS011;6932;51.438;5.470;2024-03-02T06:19:00;2.57;;;0.50;;
13720;SDS011;6932;51.438;5.470;2024-03-02T06:21:27;0.90;;;0.50;;
13720;SDS011;6932;51.438;5.470;2024-03-02T06:23:53;1.43;;;0.70;;
13720;SDS011;6932;51.438;5.470;2024-03-02T06:26:19;0.70;;;0.40;;
13720;SDS011;6932;51.438;5.470;2024-03-02T06:28:45;0.60;;;0.50;;
13720;SDS011;6932;51.438;5.470;2024-03-02T06:31:11;1.47;;;0.53;;
13720;SDS011;6932;51.438;5.470;2024-03-02T06:33:37;0.97;;;0.40;;
13720;SDS011;6932;51.438;5.470;2024-03-02T06:36:03;1.60;;;0.53;;
13720;SDS011;6932;51.438;5.470;2024-03-02T06:38:29;0.40;;;0.40;;
13720;SDS011;6932;51.438;5.470;2024-03-02T06:40:58;1.43;;;0.50;;
13720;SDS011;6932;51.438;5.470;2024-03-02T06:43:23;2.53;;;0.77;;
13720;SDS011;6932;51.438;5.470;2024-03-02T06:45:50;0.63;;;0.40;;
13720;SDS011;6932;51.438;5.470;2024-03-02T06:48:16;0.40;;;0.40;;
13720;SDS011;6932;51.438;5.470;2024-03-02T06:50:45;0.77;;;0.60;;
13720;SDS011;6932;51.438;5.470;2024-03-02T06:53:12;1.60;;;0.50;;
13720;SDS011;6932;51.438;5.470;2024-03-02T06:55:39;0.70;;;0.40;;
13720;SDS011;6932;51.438;5.470;2024-03-02T06:58:04;1.37;;;0.57;;
13720;SDS011;6932;51.438;5.470;2024-03-02T07:00:30;3.23;;;0.63;;
13720;SDS011;6932;51.438;5.470;2024-03-02T07:02:56;2.00;;;0.77;;
13720;SDS011;6932;51.438;5.470;2024-03-02T07:05:21;0.87;;;0.50;;
13720;SDS011;6932;51.438;5.470;2024-03-02T07:07:47;1.03;;;0.60;;
13720;SDS011;6932;51.438;5.470;2024-03-02T07:10:13;1.17;;;0.60;;
13720;SDS011;6932;51.438;5.470;2024-03-02T07:12:39;1.17;;;0.50;;
13720;SDS011;6932;51.438;5.470;2024-03-02T07:15:05;2.13;;;0.70;;
13720;SDS011;6932;51.438;5.470;2024-03-02T07:17:31;1.60;;;0.67;;
13720;SDS011;6932;51.438;5.470;2024-03-02T07:19:57;1.77;;;0.60;;
13720;SDS011;6932;51.438;5.470;2024-03-02T07:22:23;2.30;;;0.70;;
13720;SDS011;6932;51.438;5.470;2024-03-02T07:24:49;3.67;;;0.70;;
13720;SDS011;6932;51.438;5.470;2024-03-02T07:27:15;1.80;;;0.77;;
13720;SDS011;6932;51.438;5.470;2024-03-02T07:29:43;0.93;;;0.70;;
13720;SDS011;6932;51.438;5.470;2024-03-02T07:32:09;1.27;;;0.67;;
13720;SDS011;6932;51.438;5.470;2024-03-02T07:34:35;1.33;;;0.57;;
13720;SDS011;6932;51.438;5.470;2024-03-02T07:37:02;1.90;;;0.80;;
13720;SDS011;6932;51.438;5.470;2024-03-02T07:39:29;0.67;;;0.60;;
13720;SDS011;6932;51.438;5.470;2024-03-02T07:41:55;2.50;;;0.60;;
13720;SDS011;6932;51.438;5.470;2024-03-02T07:44:21;1.47;;;0.80;;
13720;SDS011;6932;51.438;5.470;2024-03-02T07:46:48;1.87;;;0.63;;
13720;SDS011;6932;51.438;5.470;2024-03-02T07:49:17;2.30;;;0.70;;
13720;SDS011;6932;51.438;5.470;2024-03-02T07:51:44;2.50;;;0.97;;
13720;SDS011;6932;51.438;5.470;2024-03-02T07:54:10;0.87;;;0.60;;
13720;SDS011;6932;51.438;5.470;2024-03-02T07:56:36;0.80;;;0.50;;
13720;SDS011;6932;51.438;5.470;2024-03-02T07:59:02;1.27;;;0.60;;
13720;SDS011;6932;51.438;5.470;2024-03-02T08:01:29;1.20;;;0.70;;
13720;SDS011;6932;51.438;5.470;2024-03-02T08:03:57;2.67;;;0.73;;
13720;SDS011;6932;51.438;5.470;2024-03-02T08:06:27;1.93;;;0.80;;
13720;SDS011;6932;51.438;5.470;2024-03-02T08:08:54;2.83;;;0.80;;
13720;SDS011;6932;51.438;5.470;2024-03-02T08:11:21;1.40;;;0.50;;
13720;SDS011;6932;51.438;5.470;2024-03-02T08:13:47;2.17;;;0.67;;
13720;SDS011;6932;51.438;5.470;2024-03-02T08:16:16;1.47;;;0.80;;
13720;SDS011;6932;51.438;5.470;2024-03-02T08:18:47;1.33;;;0.83;;
13720;SDS011;6932;51.438;5.470;2024-03-02T08:21:14;2.40;;;0.77;;
13720;SDS011;6932;51.438;5.470;2024-03-02T08:23:40;3.43;;;0.70;;
13720;SDS011;6932;51.438;5.470;2024-03-02T08:26:07;3.20;;;0.70;;
13720;SDS011;6932;51.438;5.470;2024-03-02T08:28:34;2.03;;;0.80;;
13720;SDS011;6932;51.438;5.470;2024-03-02T08:31:02;0.87;;;0.43;;
13720;SDS011;6932;51.438;5.470;2024-03-02T08:33:28;1.67;;;0.70;;
13720;SDS011;6932;51.438;5.470;2024-03-02T08:35:55;1.70;;;0.70;;
13720;SDS011;6932;51.438;5.470;2024-03-02T08:38:21;2.80;;;0.77;;
13720;SDS011;6932;51.438;5.470;2024-03-02T08:40:47;2.10;;;0.60;;
13720;SDS011;6932;51.438;5.470;2024-03-02T08:43:15;1.00;;;0.70;;
13720;SDS011;6932;51.438;5.470;2024-03-02T08:45:40;2.00;;;0.70;;
13720;SDS011;6932;51.438;5.470;2024-03-02T08:48:09;1.77;;;0.70;;
13720;SDS011;6932;51.438;5.470;2024-03-02T08:50:36;1.07;;;0.57;;
13720;SDS011;6932;51.438;5.470;2024-03-02T08:53:03;1.47;;;0.83;;
13720;SDS011;6932;51.438;5.470;2024-03-02T08:55:29;2.60;;;0.63;;
13720;SDS011;6932;51.438;5.470;2024-03-02T08:57:55;1.63;;;0.63;;
13720;SDS011;6932;51.438;5.470;2024-03-02T09:00:21;2.80;;;0.70;;
13720;SDS011;6932;51.438;5.470;2024-03-02T09:02:48;1.07;;;0.50;;
13720;SDS011;6932;51.438;5.470;2024-03-02T09:05:14;2.17;;;0.67;;
13720;SDS011;6932;51.438;5.470;2024-03-02T09:07:40;2.17;;;0.77;;
13720;SDS011;6932;51.438;5.470;2024-03-02T09:10:06;0.87;;;0.50;;
13720;SDS011;6932;51.438;5.470;2024-03-02T09:12:33;2.80;;;0.90;;
13720;SDS011;6932;51.438;5.470;2024-03-02T09:15:00;2.00;;;0.60;;
13720;SDS011;6932;51.438;5.470;2024-03-02T09:17:26;2.53;;;0.77;;
13720;SDS011;6932;51.438;5.470;2024-03-02T09:19:52;3.43;;;0.83;;
13720;SDS011;6932;51.438;5.470;2024-03-02T09:22:18;1.13;;;0.60;;
13720;SDS011;6932;51.438;5.470;2024-03-02T09:24:44;2.43;;;0.70;;
13720;SDS011;6932;51.438;5.470;2024-03-02T09:27:10;1.23;;;0.60;;
13720;SDS011;6932;51.438;5.470;2024-03-02T09:29:36;1.50;;;0.87;;
13720;SDS011;6932;51.438;5.470;2024-03-02T09:32:02;1.70;;;0.67;;
13720;SDS011;6932;51.438;5.470;2024-03-02T09:34:30;1.73;;;0.80;;
13720;SDS011;6932;51.438;5.470;2024-03-02T09:36:56;1.23;;;0.47;;
13720;SDS011;6932;51.438;5.470;2024-03-02T09:39:23;1.97;;;0.70;;
13720;SDS011;6932;51.438;5.470;2024-03-02T09:41:50;2.80;;;0.70;;
13720;SDS011;6932;51.438;5.470;2024-03-02T09:44:16;1.53;;;0.73;;
13720;SDS011;6932;51.438;5.470;2024-03-02T09:46:42;2.53;;;0.50;;
13720;SDS011;6932;51.438;5.470;2024-03-02T09:49:09;1.07;;;0.60;;
13720;SDS011;6932;51.438;5.470;2024-03-02T09:51:36;2.83;;;0.80;;
13720;SDS011;6932;51.438;5.470;2024-03-02T09:54:02;1.30;;;0.80;;
13720;SDS011;6932;51.438;5.470;2024-03-02T09:56:29;1.43;;;0.63;;
13720;SDS011;6932;51.438;5.470;2024-03-02T09:58:55;2.43;;;0.67;;
13720;SDS011;6932;51.438;5.470;2024-03-02T10:01:21;1.30;;;0.60;;
13720;SDS011;6932;51.438;5.470;2024-03-02T10:03:47;1.47;;;0.50;;
13720;SDS011;6932;51.438;5.470;2024-03-02T10:06:19;1.93;;;0.83;;
13720;SDS011;6932;51.438;5.470;2024-03-02T10:08:50;0.87;;;0.60;;
13720;SDS011;6932;51.438;5.470;2024-03-02T10:11:26;1.87;;;0.77;;
13720;SDS011;6932;51.438;5.470;2024-03-02T10:14:11;2.53;;;0.70;;
13720;SDS011;6932;51.438;5.470;2024-03-02T10:19:19;2.00;;;0.80;;
13720;SDS011;6932;51.438;5.470;2024-03-02T10:21:47;1.37;;;0.60;;
13720;SDS011;6932;51.438;5.470;2024-03-02T10:24:17;1.03;;;0.60;;
13720;SDS011;6932;51.438;5.470;2024-03-02T10:26:44;2.57;;;0.90;;
13720;SDS011;6932;51.438;5.470;2024-03-02T10:29:11;2.37;;;0.83;;
13720;SDS011;6932;51.438;5.470;2024-03-02T10:31:37;1.50;;;0.60;;
13720;SDS011;6932;51.438;5.470;2024-03-02T10:34:09;1.10;;;0.63;;
13720;SDS011;6932;51.438;5.470;2024-03-02T10:36:36;1.43;;;0.50;;
13720;SDS011;6932;51.438;5.470;2024-03-02T10:39:07;2.03;;;0.70;;
13720;SDS011;6932;51.438;5.470;2024-03-02T10:41:34;5.20;;;1.00;;
13720;SDS011;6932;51.438;5.470;2024-03-02T10:44:02;1.03;;;0.57;;
13720;SDS011;6932;51.438;5.470;2024-03-02T10:46:29;2.30;;;0.90;;
13720;SDS011;6932;51.438;5.470;2024-03-02T10:49:01;1.13;;;0.70;;
13720;SDS011;6932;51.438;5.470;2024-03-02T10:51:32;1.23;;;0.90;;
13720;SDS011;6932;51.438;5.470;2024-03-02T10:54:01;2.43;;;0.70;;
13720;SDS011;6932;51.438;5.470;2024-03-02T10:56:32;3.50;;;0.90;;
13720;SDS011;6932;51.438;5.470;2024-03-02T11:01:59;2.70;;;0.90;;
13720;SDS011;6932;51.438;5.470;2024-03-02T11:04:27;3.30;;;1.00;;
13720;SDS011;6932;51.438;5.470;2024-03-02T11:09:41;1.87;;;0.80;;
13720;SDS011;6932;51.438;5.470;2024-03-02T11:12:19;2.43;;;0.80;;
13720;SDS011;6932;51.438;5.470;2024-03-02T11:15:17;2.93;;;0.70;;
13720;SDS011;6932;51.438;5.470;2024-03-02T11:17:46;2.47;;;0.90;;
13720;SDS011;6932;51.438;5.470;2024-03-02T11:20:13;1.50;;;0.70;;
13720;SDS011;6932;51.438;5.470;2024-03-02T11:22:40;3.50;;;0.80;;
13720;SDS011;6932;51.438;5.470;2024-03-02T11:25:06;1.53;;;0.73;;
13720;SDS011;6932;51.438;5.470;2024-03-02T11:32:59;1.53;;;0.67;;
13720;SDS011;6932;51.438;5.470;2024-03-02T11:35:33;1.27;;;0.70;;
13720;SDS011;6932;51.438;5.470;2024-03-02T11:38:06;2.50;;;0.80;;
13720;SDS011;6932;51.438;5.470;2024-03-02T11:40:32;2.37;;;0.80;;
13720;SDS011;6932;51.438;5.470;2024-03-02T11:43:01;1.47;;;0.90;;
13720;SDS011;6932;51.438;5.470;2024-03-02T11:45:29;2.07;;;0.70;;
13720;SDS011;6932;51.438;5.470;2024-03-02T11:47:59;3.17;;;0.80;;
13720;SDS011;6932;51.438;5.470;2024-03-02T11:53:08;2.33;;;0.90;;
13720;SDS011;6932;51.438;5.470;2024-03-02T11:55:36;1.77;;;0.70;;
13720;SDS011;6932;51.438;5.470;2024-03-02T11:58:06;2.83;;;0.90;;
13720;SDS011;6932;51.438;5.470;2024-03-02T12:00:32;2.57;;;0.90;;
13720;SDS011;6932;51.438;5.470;2024-03-02T12:03:08;3.70;;;1.00;;
13720;SDS011;6932;51.438;5.470;2024-03-02T12:05:38;3.43;;;1.10;;
13720;SDS011;6932;51.438;5.470;2024-03-02T12:08:05;2.43;;;0.90;;
13720;SDS011;6932;51.438;5.470;2024-03-02T12:10:32;2.90;;;0.90;;
13720;SDS011;6932;51.438;5.470;2024-03-02T12:13:00;4.47;;;1.30;;
13720;SDS011;6932;51.438;5.470;2024-03-02T12:15:29;2.23;;;0.80;;
13720;SDS011;6932;51.438;5.470;2024-03-02T12:17:58;1.73;;;0.87;;
13720;SDS011;6932;51.438;5.470;2024-03-02T12:20:26;2.20;;;1.07;;
13720;SDS011;6932;51.438;5.470;2024-03-02T12:22:55;2.00;;;1.10;;
13720;SDS011;6932;51.438;5.470;2024-03-02T12:25:23;2.27;;;1.10;;
13720;SDS011;6932;51.438;5.470;2024-03-02T12:27:51;2.70;;;1.10;;
13720;SDS011;6932;51.438;5.470;2024-03-02T12:30:19;1.70;;;0.90;;
13720;SDS011;6932;51.438;5.470;2024-03-02T12:32:46;3.13;;;1.07;;
13720;SDS011;6932;51.438;5.470;2024-03-02T12:35:13;3.50;;;1.30;;
13720;SDS011;6932;51.438;5.470;2024-03-02T12:40:13;3.13;;;1.00;;
13720;SDS011;6932;51.438;5.470;2024-03-02T12:42:40;2.07;;;0.83;;
13720;SDS011;6932;51.438;5.470;2024-03-02T12:45:09;3.47;;;1.00;;
13720;SDS011;6932;51.438;5.470;2024-03-02T12:47:35;1.37;;;0.83;;
13720;SDS011;6932;51.438;5.470;2024-03-02T12:50:03;1.47;;;0.93;;
13720;SDS011;6932;51.438;5.470;2024-03-02T12:52:29;3.53;;;0.97;;
13720;SDS011;6932;51.438;5.470;2024-03-02T12:54:57;1.57;;;0.90;;
13720;SDS011;6932;51.438;5.470;2024-03-02T12:57:29;2.47;;;1.07;;
13720;SDS011;6932;51.438;5.470;2024-03-02T13:00:03;3.00;;;1.00;;
13720;SDS011;6932;51.438;5.470;2024-03-02T13:02:34;1.90;;;0.87;;
13720;SDS011;6932;51.438;5.470;2024-03-02T13:05:02;3.20;;;1.10;;
13720;SDS011;6932;51.438;5.470;2024-03-02T13:07:28;1.93;;;1.20;;
13720;SDS011;6932;51.438;5.470;2024-03-02T13:09:55;2.73;;;1.10;;
13720;SDS011;6932;51.438;5.470;2024-03-02T13:12:22;3.33;;;1.20;;
13720;SDS011;6932;51.438;5.470;2024-03-02T13:14:50;1.43;;;0.97;;
13720;SDS011;6932;51.438;5.470;2024-03-02T13:17:20;1.57;;;0.83;;
13720;SDS011;6932;51.438;5.470;2024-03-02T13:19:55;2.43;;;1.00;;
13720;SDS011;6932;51.438;5.470;2024-03-02T13:22:26;3.50;;;1.00;;
13720;SDS011;6932;51.438;5.470;2024-03-02T13:24:52;3.67;;;1.10;;
13720;SDS011;6932;51.438;5.470;2024-03-02T13:27:22;1.50;;;0.80;;
13720;SDS011;6932;51.438;5.470;2024-03-02T13:29:48;2.73;;;0.87;;
13720;SDS011;6932;51.438;5.470;2024-03-02T13:32:15;4.47;;;1.33;;
13720;SDS011;6932;51.438;5.470;2024-03-02T13:34:42;2.47;;;1.10;;
13720;SDS011;6932;51.438;5.470;2024-03-02T13:37:08;2.07;;;0.80;;
13720;SDS011;6932;51.438;5.470;2024-03-02T13:39:34;1.20;;;0.90;;
13720;SDS011;6932;51.438;5.470;2024-03-02T13:42:09;2.13;;;1.10;;
13720;SDS011;6932;51.438;5.470;2024-03-02T13:44:36;2.07;;;1.10;;
13720;SDS011;6932;51.438;5.470;2024-03-02T13:47:03;4.93;;;1.00;;
13720;SDS011;6932;51.438;5.470;2024-03-02T13:49:29;4.67;;;0.87;;
13720;SDS011;6932;51.438;5.470;2024-03-02T13:52:04;2.03;;;0.90;;
13720;SDS011;6932;51.438;5.470;2024-03-02T13:54:42;2.80;;;1.10;;
13720;SDS011;6932;51.438;5.470;2024-03-02T13:57:10;3.63;;;1.50;;
13720;SDS011;6932;51.438;5.470;2024-03-02T13:59:37;3.17;;;1.30;;
13720;SDS011;6932;51.438;5.470;2024-03-02T14:02:04;1.53;;;0.93;;
13720;SDS011;6932;51.438;5.470;2024-03-02T14:04:31;1.57;;;1.00;;
13720;SDS011;6932;51.438;5.470;2024-03-02T14:06:59;2.73;;;0.90;;
13720;SDS011;6932;51.438;5.470;2024-03-02T14:09:25;3.40;;;1.00;;
13720;SDS011;6932;51.438;5.470;2024-03-02T14:11:52;1.13;;;0.73;;
13720;SDS011;6932;51.438;5.470;2024-03-02T14:14:18;3.80;;;0.90;;
13720;SDS011;6932;51.438;5.470;2024-03-02T14:16:44;2.67;;;1.33;;
13720;SDS011;6932;51.438;5.470;2024-03-02T14:19:11;2.57;;;1.00;;
13720;SDS011;6932;51.438;5.470;2024-03-02T14:21:37;1.87;;;1.00;;
13720;SDS011;6932;51.438;5.470;2024-03-02T14:24:06;2.77;;;1.20;;
13720;SDS011;6932;51.438;5.470;2024-03-02T14:26:33;2.63;;;1.10;;
13720;SDS011;6932;51.438;5.470;2024-03-02T14:28:59;2.43;;;1.23;;
13720;SDS011;6932;51.438;5.470;2024-03-02T14:31:28;1.40;;;1.10;;
13720;SDS011;6932;51.438;5.470;2024-03-02T14:33:54;2.30;;;0.97;;
13720;SDS011;6932;51.438;5.470;2024-03-02T14:36:20;2.20;;;1.03;;
13720;SDS011;6932;51.438;5.470;2024-03-02T14:38:46;2.13;;;1.20;;
13720;SDS011;6932;51.438;5.470;2024-03-02T14:41:12;1.60;;;1.00;;
13720;SDS011;6932;51.438;5.470;2024-03-02T14:43:38;2.00;;;1.17;;
13720;SDS011;6932;51.438;5.470;2024-03-02T14:46:04;1.57;;;0.87;;
13720;SDS011;6932;51.438;5.470;2024-03-02T14:48:35;3.80;;;1.00;;
13720;SDS011;6932;51.438;5.470;2024-03-02T14:51:01;0.87;;;0.77;;
13720;SDS011;6932;51.438;5.470;2024-03-02T14:53:27;0.90;;;0.80;;
13720;SDS011;6932;51.438;5.470;2024-03-02T14:55:53;2.00;;;0.80;;
13720;SDS011;6932;51.438;5.470;2024-03-02T14:58:20;2.07;;;0.97;;
13720;SDS011;6932;51.438;5.470;2024-03-02T15:00:46;1.77;;;1.10;;
13720;SDS011;6932;51.438;5.470;2024-03-02T15:03:12;1.27;;;0.70;;
13720;SDS011;6932;51.438;5.470;2024-03-02T15:05:38;1.37;;;0.80;;
13720;SDS011;6932;51.438;5.470;2024-03-02T15:08:05;1.00;;;0.90;;
13720;SDS011;6932;51.438;5.470;2024-03-02T15:10:32;5.73;;;1.00;;
13720;SDS011;6932;51.438;5.470;2024-03-02T15:12:58;2.53;;;1.10;;
13720;SDS011;6932;51.438;5.470;2024-03-02T15:15:24;1.00;;;0.80;;
13720;SDS011;6932;51.438;5.470;2024-03-02T15:17:50;1.00;;;0.80;;
13720;SDS011;6932;51.438;5.470;2024-03-02T15:20:17;3.53;;;1.27;;
13720;SDS011;6932;51.438;5.470;2024-03-02T15:22:43;1.50;;;1.00;;
13720;SDS011;6932;51.438;5.470;2024-03-02T15:25:09;1.60;;;1.07;;
13720;SDS011;6932;51.438;5.470;2024-03-02T15:27:34;1.00;;;0.87;;
13720;SDS011;6932;51.438;5.470;2024-03-02T15:30:00;2.30;;;1.00;;